sensor_id;sensor_type;location;lat;lon;timestamp;P1;durP1;ratioP1;P2;durP2;ratioP2
22687;SDS011;11511;51.514;7.080;2023-09-18T00:00:38;15.90;;;12.88;;
22687;SDS011;11511;51.514;7.080;2023-09-18T00:03:04;17.67;;;13.20;;
22687;SDS011;11511;51.514;7.080;2023-09-18T00:05:29;22.05;;;12.65;;
22687;SDS011;11511;51.514;7.080;2023-09-18T00:07:55;19.90;;;12.48;;
22687;SDS011;11511;51.514;7.080;2023-09-18T00:10:21;16.48;;;12.60;;
22687;SDS011;11511;51.514;7.080;2023-09-18T00:12:46;15.63;;;12.85;;
22687;SDS011;11511;51.514;7.080;2023-09-18T00:15:12;14.10;;;11.68;;
22687;SDS011;11511;51.514;7.080;2023-09-18T00:17:37;16.65;;;12.15;;
22687;SDS011;11511;51.514;7.080;2023-09-18T00:20:03;17.88;;;12.27;;
22687;SDS011;11511;51.514;7.080;2023-09-18T00:22:31;15.75;;;11.80;;
22687;SDS011;11511;51.514;7.080;2023-09-18T00:24:58;15.52;;;12.30;;
22687;SDS011;11511;51.514;7.080;2023-09-18T00:27:23;15.38;;;11.95;;
22687;SDS011;11511;51.514;7.080;2023-09-18T00:29:49;15.85;;;11.77;;
22687;SDS011;11511;51.514;7.080;2023-09-18T00:32:14;15.45;;;12.02;;
22687;SDS011;11511;51.514;7.080;2023-09-18T00:34:39;17.67;;;12.43;;
22687;SDS011;11511;51.514;7.080;2023-09-18T00:37:07;17.17;;;12.00;;
22687;SDS011;11511;51.514;7.080;2023-09-18T00:39:35;18.33;;;11.55;;
22687;SDS011;11511;51.514;7.080;2023-09-18T00:42:01;16.05;;;11.52;;
22687;SDS011;11511;51.514;7.080;2023-09-18T00:44:27;16.42;;;11.90;;
22687;SDS011;11511;51.514;7.080;2023-09-18T00:46:52;16.88;;;11.45;;
22687;SDS011;11511;51.514;7.080;2023-09-18T00:49:19;14.07;;;11.77;;
22687;SDS011;11511;51.514;7.080;2023-09-18T00:51:45;16.35;;;12.27;;
22687;SDS011;11511;51.514;7.080;2023-09-18T00:54:12;19.25;;;11.73;;
22687;SDS011;11511;51.514;7.080;2023-09-18T00:56:40;13.38;;;10.73;;
22687;SDS011;11511;51.514;7.080;2023-09-18T00:59:06;14.38;;;10.85;;
22687;SDS011;11511;51.514;7.080;2023-09-18T01:01:32;16.80;;;11.02;;
22687;SDS011;11511;51.514;7.080;2023-09-18T01:03:57;14.20;;;10.45;;
22687;SDS011;11511;51.514;7.080;2023-09-18T01:06:24;14.30;;;11.30;;
22687;SDS011;11511;51.514;7.080;2023-09-18T01:08:52;15.00;;;10.43;;
22687;SDS011;11511;51.514;7.080;2023-09-18T01:11:21;16.75;;;11.50;;
22687;SDS011;11511;51.514;7.080;2023-09-18T01:16:53;15.32;;;10.50;;
22687;SDS011;11511;51.514;7.080;2023-09-18T01:19:54;13.52;;;10.23;;
22687;SDS011;11511;51.514;7.080;2023-09-18T01:22:14;17.17;;;10.38;;
22687;SDS011;11511;51.514;7.080;2023-09-18T01:24:41;14.57;;;10.38;;
22687;SDS011;11511;51.514;7.080;2023-09-18T01:27:11;16.55;;;10.23;;
22687;SDS011;11511;51.514;7.080;2023-09-18T01:29:38;15.45;;;10.25;;
22687;SDS011;11511;51.514;7.080;2023-09-18T01:32:04;13.05;;;9.43;;
22687;SDS011;11511;51.514;7.080;2023-09-18T01:34:32;15.13;;;9.85;;
22687;SDS011;11511;51.514;7.080;2023-09-18T01:37:01;12.57;;;10.23;;
22687;SDS011;11511;51.514;7.080;2023-09-18T01:39:29;13.00;;;9.30;;
22687;SDS011;11511;51.514;7.080;2023-09-18T01:42:00;13.88;;;9.50;;
22687;SDS011;11511;51.514;7.080;2023-09-18T01:44:27;13.77;;;9.90;;
22687;SDS011;11511;51.514;7.080;2023-09-18T01:46:53;13.07;;;9.32;;
22687;SDS011;11511;51.514;7.080;2023-09-18T01:49:31;12.20;;;9.82;;
22687;SDS011;11511;51.514;7.080;2023-09-18T01:51:57;14.93;;;10.70;;
22687;SDS011;11511;51.514;7.080;2023-09-18T01:54:23;20.25;;;14.05;;
22687;SDS011;11511;51.514;7.080;2023-09-18T01:56:49;23.90;;;15.63;;
22687;SDS011;11511;51.514;7.080;2023-09-18T01:59:15;21.02;;;14.15;;
22687;SDS011;11511;51.514;7.080;2023-09-18T02:01:41;18.42;;;13.30;;
22687;SDS011;11511;51.514;7.080;2023-09-18T02:04:06;19.88;;;12.45;;
22687;SDS011;11511;51.514;7.080;2023-09-18T02:06:31;17.08;;;13.00;;
22687;SDS011;11511;51.514;7.080;2023-09-18T02:08:57;19.27;;;11.30;;
22687;SDS011;11511;51.514;7.080;2023-09-18T02:11:22;15.93;;;11.05;;
22687;SDS011;11511;51.514;7.080;2023-09-18T02:13:47;13.70;;;10.93;;
22687;SDS011;11511;51.514;7.080;2023-09-18T02:16:13;20.83;;;10.32;;
22687;SDS011;11511;51.514;7.080;2023-09-18T02:18:38;14.43;;;10.30;;
22687;SDS011;11511;51.514;7.080;2023-09-18T02:21:03;15.32;;;9.93;;
22687;SDS011;11511;51.514;7.080;2023-09-18T02:23:29;15.70;;;9.25;;
22687;SDS011;11511;51.514;7.080;2023-09-18T02:25:57;13.52;;;9.75;;
22687;SDS011;11511;51.514;7.080;2023-09-18T02:28:23;12.95;;;8.85;;
22687;SDS011;11511;51.514;7.080;2023-09-18T02:30:48;13.57;;;9.63;;
22687;SDS011;11511;51.514;7.080;2023-09-18T02:33:14;15.57;;;9.60;;
22687;SDS011;11511;51.514;7.080;2023-09-18T02:35:40;15.25;;;9.88;;
22687;SDS011;11511;51.514;7.080;2023-09-18T02:38:06;13.27;;;9.88;;
22687;SDS011;11511;51.514;7.080;2023-09-18T02:40:31;15.63;;;10.00;;
22687;SDS011;11511;51.514;7.080;2023-09-18T02:42:56;16.65;;;10.27;;
22687;SDS011;11511;51.514;7.080;2023-09-18T02:45:22;15.23;;;9.98;;
22687;SDS011;11511;51.514;7.080;2023-09-18T02:47:47;14.88;;;11.02;;
22687;SDS011;11511;51.514;7.080;2023-09-18T02:50:12;13.75;;;10.63;;
22687;SDS011;11511;51.514;7.080;2023-09-18T02:52:38;16.38;;;10.60;;
22687;SDS011;11511;51.514;7.080;2023-09-18T02:55:03;14.38;;;10.25;;
22687;SDS011;11511;51.514;7.080;2023-09-18T02:57:29;12.57;;;10.45;;
22687;SDS011;11511;51.514;7.080;2023-09-18T02:59:54;15.43;;;11.20;;
22687;SDS011;11511;51.514;7.080;2023-09-18T03:02:19;14.77;;;11.32;;
22687;SDS011;11511;51.514;7.080;2023-09-18T03:04:45;13.80;;;11.80;;
22687;SDS011;11511;51.514;7.080;2023-09-18T03:07:12;16.15;;;12.00;;
22687;SDS011;11511;51.514;7.080;2023-09-18T03:09:38;13.77;;;11.82;;
22687;SDS011;11511;51.514;7.080;2023-09-18T03:12:03;23.08;;;14.05;;
22687;SDS011;11511;51.514;7.080;2023-09-18T03:14:29;16.38;;;12.85;;
22687;SDS011;11511;51.514;7.080;2023-09-18T03:16:54;17.02;;;12.15;;
22687;SDS011;11511;51.514;7.080;2023-09-18T03:19:19;18.70;;;12.43;;
22687;SDS011;11511;51.514;7.080;2023-09-18T03:21:47;14.43;;;11.82;;
22687;SDS011;11511;51.514;7.080;2023-09-18T03:24:12;12.85;;;11.30;;
22687;SDS011;11511;51.514;7.080;2023-09-18T03:26:38;15.35;;;11.57;;
22687;SDS011;11511;51.514;7.080;2023-09-18T03:29:03;14.05;;;11.18;;
22687;SDS011;11511;51.514;7.080;2023-09-18T03:31:29;16.67;;;12.38;;
22687;SDS011;11511;51.514;7.080;2023-09-18T03:33:55;14.80;;;11.50;;
22687;SDS011;11511;51.514;7.080;2023-09-18T03:36:21;13.25;;;11.48;;
22687;SDS011;11511;51.514;7.080;2023-09-18T03:38:47;16.63;;;11.65;;
22687;SDS011;11511;51.514;7.080;2023-09-18T03:41:13;16.17;;;12.20;;
22687;SDS011;11511;51.514;7.080;2023-09-18T03:43:38;17.60;;;11.70;;
22687;SDS011;11511;51.514;7.080;2023-09-18T03:46:04;14.07;;;11.65;;
22687;SDS011;11511;51.514;7.080;2023-09-18T03:48:30;18.42;;;10.88;;
22687;SDS011;11511;51.514;7.080;2023-09-18T03:51:01;12.20;;;7.85;;
22687;SDS011;11511;51.514;7.080;2023-09-18T03:53:26;16.00;;;7.47;;
22687;SDS011;11511;51.514;7.080;2023-09-18T03:55:51;10.93;;;6.95;;
22687;SDS011;11511;51.514;7.080;2023-09-18T03:58:17;7.25;;;6.22;;
22687;SDS011;11511;51.514;7.080;2023-09-18T04:00:42;8.75;;;6.28;;
22687;SDS011;11511;51.514;7.080;2023-09-18T04:03:08;8.50;;;5.13;;
22687;SDS011;11511;51.514;7.080;2023-09-18T04:05:34;11.02;;;5.18;;
22687;SDS011;11511;51.514;7.080;2023-09-18T04:07:59;7.97;;;5.05;;
22687;SDS011;11511;51.514;7.080;2023-09-18T04:10:25;8.07;;;5.10;;
22687;SDS011;11511;51.514;7.080;2023-09-18T04:12:51;12.55;;;4.55;;
22687;SDS011;11511;51.514;7.080;2023-09-18T04:15:16;10.23;;;4.50;;
22687;SDS011;11511;51.514;7.080;2023-09-18T04:17:44;9.40;;;5.05;;
22687;SDS011;11511;51.514;7.080;2023-09-18T04:20:10;9.30;;;4.88;;
22687;SDS011;11511;51.514;7.080;2023-09-18T04:22:41;9.80;;;4.60;;
22687;SDS011;11511;51.514;7.080;2023-09-18T04:25:14;6.88;;;4.60;;
22687;SDS011;11511;51.514;7.080;2023-09-18T04:27:39;12.23;;;5.15;;
22687;SDS011;11511;51.514;7.080;2023-09-18T04:30:05;7.63;;;4.78;;
22687;SDS011;11511;51.514;7.080;2023-09-18T04:32:34;6.90;;;4.28;;
22687;SDS011;11511;51.514;7.080;2023-09-18T04:34:59;14.95;;;4.80;;
22687;SDS011;11511;51.514;7.080;2023-09-18T04:37:24;11.55;;;4.85;;
22687;SDS011;11511;51.514;7.080;2023-09-18T04:39:50;9.15;;;4.22;;
22687;SDS011;11511;51.514;7.080;2023-09-18T04:42:15;10.63;;;4.60;;
22687;SDS011;11511;51.514;7.080;2023-09-18T04:44:40;7.63;;;4.63;;
22687;SDS011;11511;51.514;7.080;2023-09-18T04:47:07;9.32;;;4.82;;
22687;SDS011;11511;51.514;7.080;2023-09-18T04:49:32;8.52;;;4.28;;
22687;SDS011;11511;51.514;7.080;2023-09-18T04:51:58;10.48;;;4.32;;
22687;SDS011;11511;51.514;7.080;2023-09-18T04:54:23;10.30;;;4.20;;
22687;SDS011;11511;51.514;7.080;2023-09-18T04:56:48;14.35;;;4.28;;
22687;SDS011;11511;51.514;7.080;2023-09-18T04:59:14;12.23;;;3.85;;
22687;SDS011;11511;51.514;7.080;2023-09-18T05:01:39;7.85;;;4.00;;
22687;SDS011;11511;51.514;7.080;2023-09-18T05:04:05;8.15;;;3.88;;
22687;SDS011;11511;51.514;7.080;2023-09-18T05:06:30;14.07;;;4.07;;
22687;SDS011;11511;51.514;7.080;2023-09-18T05:08:55;8.80;;;3.95;;
22687;SDS011;11511;51.514;7.080;2023-09-18T05:11:22;11.55;;;4.05;;
22687;SDS011;11511;51.514;7.080;2023-09-18T05:13:48;13.52;;;4.13;;
22687;SDS011;11511;51.514;7.080;2023-09-18T05:16:14;12.20;;;3.80;;
22687;SDS011;11511;51.514;7.080;2023-09-18T05:18:41;8.65;;;3.53;;
22687;SDS011;11511;51.514;7.080;2023-09-18T05:21:06;9.77;;;4.03;;
22687;SDS011;11511;51.514;7.080;2023-09-18T05:23:32;9.40;;;3.70;;
22687;SDS011;11511;51.514;7.080;2023-09-18T05:25:57;11.10;;;3.72;;
22687;SDS011;11511;51.514;7.080;2023-09-18T05:28:22;8.57;;;3.63;;
22687;SDS011;11511;51.514;7.080;2023-09-18T05:30:48;9.43;;;3.70;;
22687;SDS011;11511;51.514;7.080;2023-09-18T05:33:13;11.88;;;3.80;;
22687;SDS011;11511;51.514;7.080;2023-09-18T05:35:42;8.55;;;3.47;;
22687;SDS011;11511;51.514;7.080;2023-09-18T05:38:10;7.47;;;3.50;;
22687;SDS011;11511;51.514;7.080;2023-09-18T05:40:38;14.68;;;4.00;;
22687;SDS011;11511;51.514;7.080;2023-09-18T05:43:04;11.32;;;3.60;;
22687;SDS011;11511;51.514;7.080;2023-09-18T05:45:29;10.02;;;3.85;;
22687;SDS011;11511;51.514;7.080;2023-09-18T05:47:56;8.82;;;3.53;;
22687;SDS011;11511;51.514;7.080;2023-09-18T05:50:31;9.77;;;4.10;;
22687;SDS011;11511;51.514;7.080;2023-09-18T05:52:57;9.70;;;4.00;;
22687;SDS011;11511;51.514;7.080;2023-09-18T05:55:29;13.10;;;4.00;;
22687;SDS011;11511;51.514;7.080;2023-09-18T05:57:58;10.18;;;4.80;;
22687;SDS011;11511;51.514;7.080;2023-09-18T06:00:24;10.20;;;4.10;;
22687;SDS011;11511;51.514;7.080;2023-09-18T06:02:50;10.80;;;4.03;;
22687;SDS011;11511;51.514;7.080;2023-09-18T06:05:18;9.68;;;3.92;;
22687;SDS011;11511;51.514;7.080;2023-09-18T06:07:47;9.90;;;4.00;;
22687;SDS011;11511;51.514;7.080;2023-09-18T06:10:13;10.50;;;4.18;;
22687;SDS011;11511;51.514;7.080;2023-09-18T06:12:39;8.90;;;3.70;;
22687;SDS011;11511;51.514;7.080;2023-09-18T06:15:07;12.05;;;3.67;;
22687;SDS011;11511;51.514;7.080;2023-09-18T06:17:37;11.25;;;3.47;;
22687;SDS011;11511;51.514;7.080;2023-09-18T06:20:07;12.05;;;3.80;;
22687;SDS011;11511;51.514;7.080;2023-09-18T06:22:37;12.95;;;4.05;;
22687;SDS011;11511;51.514;7.080;2023-09-18T06:25:04;10.00;;;3.50;;
22687;SDS011;11511;51.514;7.080;2023-09-18T06:27:30;10.50;;;3.60;;
22687;SDS011;11511;51.514;7.080;2023-09-18T06:29:56;10.05;;;3.50;;
22687;SDS011;11511;51.514;7.080;2023-09-18T06:32:22;10.65;;;3.20;;
22687;SDS011;11511;51.514;7.080;2023-09-18T06:34:47;9.55;;;3.53;;
22687;SDS011;11511;51.514;7.080;2023-09-18T06:37:12;8.15;;;3.20;;
22687;SDS011;11511;51.514;7.080;2023-09-18T06:39:38;10.50;;;3.28;;
22687;SDS011;11511;51.514;7.080;2023-09-18T06:42:04;9.48;;;3.10;;
22687;SDS011;11511;51.514;7.080;2023-09-18T06:44:29;13.05;;;3.17;;
22687;SDS011;11511;51.514;7.080;2023-09-18T06:46:55;10.63;;;3.20;;
22687;SDS011;11511;51.514;7.080;2023-09-18T06:49:20;7.13;;;2.90;;
22687;SDS011;11511;51.514;7.080;2023-09-18T06:51:45;10.50;;;2.83;;
22687;SDS011;11511;51.514;7.080;2023-09-18T06:54:10;10.00;;;3.05;;
22687;SDS011;11511;51.514;7.080;2023-09-18T06:56:36;7.85;;;2.33;;
22687;SDS011;11511;51.514;7.080;2023-09-18T06:59:01;8.23;;;3.08;;
22687;SDS011;11511;51.514;7.080;2023-09-18T07:01:27;6.30;;;3.05;;
22687;SDS011;11511;51.514;7.080;2023-09-18T07:03:53;7.22;;;2.80;;
22687;SDS011;11511;51.514;7.080;2023-09-18T07:06:18;6.15;;;2.53;;
22687;SDS011;11511;51.514;7.080;2023-09-18T07:08:45;8.07;;;2.70;;
22687;SDS011;11511;51.514;7.080;2023-09-18T07:11:11;7.57;;;2.60;;
22687;SDS011;11511;51.514;7.080;2023-09-18T07:13:37;8.15;;;2.42;;
22687;SDS011;11511;51.514;7.080;2023-09-18T07:16:05;8.82;;;2.60;;
22687;SDS011;11511;51.514;7.080;2023-09-18T07:18:31;6.88;;;2.40;;
22687;SDS011;11511;51.514;7.080;2023-09-18T07:20:56;8.25;;;2.40;;
22687;SDS011;11511;51.514;7.080;2023-09-18T07:23:22;7.32;;;2.15;;
22687;SDS011;11511;51.514;7.080;2023-09-18T07:25:47;5.55;;;2.20;;
22687;SDS011;11511;51.514;7.080;2023-09-18T07:28:13;7.32;;;2.50;;
22687;SDS011;11511;51.514;7.080;2023-09-18T07:30:42;4.57;;;1.95;;
22687;SDS011;11511;51.514;7.080;2023-09-18T07:33:09;5.57;;;2.13;;
22687;SDS011;11511;51.514;7.080;2023-09-18T07:35:38;7.18;;;2.58;;
22687;SDS011;11511;51.514;7.080;2023-09-18T07:38:03;7.13;;;2.67;;
22687;SDS011;11511;51.514;7.080;2023-09-18T07:40:29;6.35;;;2.20;;
22687;SDS011;11511;51.514;7.080;2023-09-18T07:42:55;7.25;;;2.10;;
22687;SDS011;11511;51.514;7.080;2023-09-18T07:45:20;6.07;;;2.00;;
22687;SDS011;11511;51.514;7.080;2023-09-18T07:47:45;5.82;;;2.05;;
22687;SDS011;11511;51.514;7.080;2023-09-18T07:50:10;7.07;;;2.22;;
22687;SDS011;11511;51.514;7.080;2023-09-18T07:52:36;8.73;;;2.05;;
22687;SDS011;11511;51.514;7.080;2023-09-18T07:55:02;6.30;;;2.17;;
22687;SDS011;11511;51.514;7.080;2023-09-18T07:57:28;7.70;;;2.20;;
22687;SDS011;11511;51.514;7.080;2023-09-18T07:59:55;9.60;;;2.40;;
22687;SDS011;11511;51.514;7.080;2023-09-18T08:02:20;7.60;;;2.10;;
22687;SDS011;11511;51.514;7.080;2023-09-18T08:04:46;3.65;;;1.70;;
22687;SDS011;11511;51.514;7.080;2023-09-18T08:07:12;8.32;;;2.08;;
22687;SDS011;11511;51.514;7.080;2023-09-18T08:09:37;6.03;;;2.15;;
22687;SDS011;11511;51.514;7.080;2023-09-18T08:12:03;5.20;;;2.15;;
22687;SDS011;11511;51.514;7.080;2023-09-18T08:14:30;4.35;;;1.80;;
22687;SDS011;11511;51.514;7.080;2023-09-18T08:16:56;5.82;;;2.03;;
22687;SDS011;11511;51.514;7.080;2023-09-18T08:19:25;4.53;;;1.70;;
22687;SDS011;11511;51.514;7.080;2023-09-18T08:21:52;6.38;;;1.90;;
22687;SDS011;11511;51.514;7.080;2023-09-18T08:24:19;5.57;;;1.58;;
22687;SDS011;11511;51.514;7.080;2023-09-18T08:26:44;5.15;;;1.73;;
22687;SDS011;11511;51.514;7.080;2023-09-18T08:29:09;7.00;;;1.58;;
22687;SDS011;11511;51.514;7.080;2023-09-18T08:31:37;5.65;;;1.80;;
22687;SDS011;11511;51.514;7.080;2023-09-18T08:34:03;4.93;;;2.00;;
22687;SDS011;11511;51.514;7.080;2023-09-18T08:36:28;5.60;;;1.90;;
22687;SDS011;11511;51.514;7.080;2023-09-18T08:38:55;6.68;;;1.92;;
22687;SDS011;11511;51.514;7.080;2023-09-18T08:41:20;5.57;;;1.50;;
22687;SDS011;11511;51.514;7.080;2023-09-18T08:43:51;4.70;;;1.85;;
22687;SDS011;11511;51.514;7.080;2023-09-18T08:46:18;4.03;;;1.70;;
22687;SDS011;11511;51.514;7.080;2023-09-18T08:48:44;8.10;;;2.15;;
22687;SDS011;11511;51.514;7.080;2023-09-18T08:51:10;9.20;;;1.95;;
22687;SDS011;11511;51.514;7.080;2023-09-18T08:53:37;7.88;;;2.10;;
22687;SDS011;11511;51.514;7.080;2023-09-18T08:56:04;4.43;;;1.60;;
22687;SDS011;11511;51.514;7.080;2023-09-18T08:58:33;3.25;;;1.80;;
22687;SDS011;11511;51.514;7.080;2023-09-18T09:01:02;7.15;;;1.52;;
22687;SDS011;11511;51.514;7.080;2023-09-18T09:03:34;4.40;;;1.50;;
22687;SDS011;11511;51.514;7.080;2023-09-18T09:06:03;4.35;;;1.60;;
22687;SDS011;11511;51.514;7.080;2023-09-18T09:08:30;4.63;;;1.48;;
22687;SDS011;11511;51.514;7.080;2023-09-18T09:10:56;2.30;;;1.15;;
22687;SDS011;11511;51.514;7.080;2023-09-18T09:13:23;3.88;;;1.15;;
22687;SDS011;11511;51.514;7.080;2023-09-18T09:15:51;6.53;;;1.30;;
22687;SDS011;11511;51.514;7.080;2023-09-18T09:18:19;1.38;;;1.02;;
22687;SDS011;11511;51.514;7.080;2023-09-18T09:20:58;4.18;;;1.20;;
22687;SDS011;11511;51.514;7.080;2023-09-18T09:23:26;3.13;;;1.10;;
22687;SDS011;11511;51.514;7.080;2023-09-18T09:25:53;3.85;;;1.27;;
22687;SDS011;11511;51.514;7.080;2023-09-18T09:28:29;3.70;;;1.30;;
22687;SDS011;11511;51.514;7.080;2023-09-18T09:31:02;3.20;;;1.10;;
22687;SDS011;11511;51.514;7.080;2023-09-18T09:33:28;4.35;;;1.20;;
22687;SDS011;11511;51.514;7.080;2023-09-18T09:35:54;1.38;;;1.02;;
22687;SDS011;11511;51.514;7.080;2023-09-18T09:38:20;2.78;;;1.33;;
22687;SDS011;11511;51.514;7.080;2023-09-18T09:40:59;2.83;;;1.20;;
22687;SDS011;11511;51.514;7.080;2023-09-18T09:43:32;2.45;;;0.90;;
22687;SDS011;11511;51.514;7.080;2023-09-18T09:46:01;4.60;;;1.20;;
22687;SDS011;11511;51.514;7.080;2023-09-18T09:48:26;2.85;;;1.15;;
22687;SDS011;11511;51.514;7.080;2023-09-18T09:50:56;1.98;;;1.08;;
22687;SDS011;11511;51.514;7.080;2023-09-18T09:53:41;2.67;;;1.15;;
22687;SDS011;11511;51.514;7.080;2023-09-18T09:56:07;2.90;;;1.17;;
22687;SDS011;11511;51.514;7.080;2023-09-18T09:58:33;2.30;;;1.08;;
22687;SDS011;11511;51.514;7.080;2023-09-18T10:01:02;6.05;;;1.05;;
22687;SDS011;11511;51.514;7.080;2023-09-18T10:03:30;4.35;;;0.95;;
22687;SDS011;11511;51.514;7.080;2023-09-18T10:05:58;3.15;;;1.30;;
22687;SDS011;11511;51.514;7.080;2023-09-18T10:08:26;3.47;;;1.10;;
22687;SDS011;11511;51.514;7.080;2023-09-18T10:10:56;1.77;;;1.00;;
22687;SDS011;11511;51.514;7.080;2023-09-18T10:15:59;4.53;;;1.20;;
22687;SDS011;11511;51.514;7.080;2023-09-18T10:18:41;3.42;;;0.90;;
22687;SDS011;11511;51.514;7.080;2023-09-18T10:27:01;4.88;;;1.00;;
22687;SDS011;11511;51.514;7.080;2023-09-18T10:29:32;5.15;;;1.10;;
22687;SDS011;11511;51.514;7.080;2023-09-18T10:32:00;2.13;;;1.02;;
22687;SDS011;11511;51.514;7.080;2023-09-18T10:34:28;2.85;;;0.95;;
22687;SDS011;11511;51.514;7.080;2023-09-18T10:36:55;4.25;;;1.27;;
22687;SDS011;11511;51.514;7.080;2023-09-18T10:39:21;2.90;;;0.85;;
22687;SDS011;11511;51.514;7.080;2023-09-18T10:41:53;3.05;;;1.20;;
22687;SDS011;11511;51.514;7.080;2023-09-18T10:44:20;2.92;;;0.90;;
22687;SDS011;11511;51.514;7.080;2023-09-18T10:46:46;3.60;;;1.00;;
22687;SDS011;11511;51.514;7.080;2023-09-18T10:49:13;3.33;;;0.80;;
22687;SDS011;11511;51.514;7.080;2023-09-18T10:51:40;3.00;;;0.82;;
22687;SDS011;11511;51.514;7.080;2023-09-18T10:54:09;2.58;;;1.10;;
22687;SDS011;11511;51.514;7.080;2023-09-18T10:56:36;5.57;;;1.00;;
22687;SDS011;11511;51.514;7.080;2023-09-18T10:59:05;2.65;;;1.00;;
22687;SDS011;11511;51.514;7.080;2023-09-18T11:01:32;2.53;;;1.20;;
22687;SDS011;11511;51.514;7.080;2023-09-18T11:04:01;5.80;;;0.93;;
22687;SDS011;11511;51.514;7.080;2023-09-18T11:06:29;2.63;;;1.10;;
22687;SDS011;11511;51.514;7.080;2023-09-18T11:09:02;2.65;;;0.90;;
22687;SDS011;11511;51.514;7.080;2023-09-18T11:11:31;4.75;;;1.10;;
22687;SDS011;11511;51.514;7.080;2023-09-18T11:14:01;2.10;;;1.17;;
22687;SDS011;11511;51.514;7.080;2023-09-18T11:21:30;2.63;;;1.20;;
22687;SDS011;11511;51.514;7.080;2023-09-18T11:24:03;4.00;;;1.00;;
22687;SDS011;11511;51.514;7.080;2023-09-18T11:26:34;3.00;;;1.20;;
22687;SDS011;11511;51.514;7.080;2023-09-18T11:29:07;2.15;;;0.98;;
22687;SDS011;11511;51.514;7.080;2023-09-18T11:34:11;2.28;;;1.10;;
22687;SDS011;11511;51.514;7.080;2023-09-18T11:36:47;4.55;;;1.20;;
22687;SDS011;11511;51.514;7.080;2023-09-18T11:39:13;5.30;;;1.30;;
22687;SDS011;11511;51.514;7.080;2023-09-18T11:41:39;2.00;;;1.00;;
22687;SDS011;11511;51.514;7.080;2023-09-18T11:46:39;5.38;;;1.15;;
22687;SDS011;11511;51.514;7.080;2023-09-18T11:49:08;3.55;;;1.27;;
22687;SDS011;11511;51.514;7.080;2023-09-18T11:51:36;6.15;;;1.27;;
22687;SDS011;11511;51.514;7.080;2023-09-18T11:54:02;2.78;;;1.20;;
22687;SDS011;11511;51.514;7.080;2023-09-18T11:56:28;2.83;;;1.30;;
22687;SDS011;11511;51.514;7.080;2023-09-18T11:58:54;2.05;;;1.30;;
22687;SDS011;11511;51.514;7.080;2023-09-18T12:01:20;4.63;;;1.30;;
22687;SDS011;11511;51.514;7.080;2023-09-18T12:03:52;4.22;;;1.40;;
22687;SDS011;11511;51.514;7.080;2023-09-18T12:06:19;4.20;;;1.38;;
22687;SDS011;11511;51.514;7.080;2023-09-18T12:08:44;5.20;;;1.55;;
22687;SDS011;11511;51.514;7.080;2023-09-18T12:11:12;3.10;;;1.50;;
22687;SDS011;11511;51.514;7.080;2023-09-18T12:13:41;5.20;;;1.40;;
22687;SDS011;11511;51.514;7.080;2023-09-18T12:16:08;2.92;;;1.13;;
22687;SDS011;11511;51.514;7.080;2023-09-18T12:18:34;2.55;;;1.20;;
22687;SDS011;11511;51.514;7.080;2023-09-18T12:21:02;6.90;;;1.55;;
22687;SDS011;11511;51.514;7.080;2023-09-18T12:23:37;6.25;;;1.40;;
22687;SDS011;11511;51.514;7.080;2023-09-18T12:26:09;5.85;;;1.50;;
22687;SDS011;11511;51.514;7.080;2023-09-18T12:28:39;2.03;;;1.30;;
22687;SDS011;11511;51.514;7.080;2023-09-18T12:31:06;2.92;;;1.50;;
22687;SDS011;11511;51.514;7.080;2023-09-18T12:33:35;3.10;;;1.30;;
22687;SDS011;11511;51.514;7.080;2023-09-18T12:36:05;3.35;;;1.30;;
22687;SDS011;11511;51.514;7.080;2023-09-18T12:38:32;2.40;;;1.10;;
22687;SDS011;11511;51.514;7.080;2023-09-18T12:40:59;7.28;;;1.50;;
22687;SDS011;11511;51.514;7.080;2023-09-18T12:43:37;5.70;;;1.40;;
22687;SDS011;11511;51.514;7.080;2023-09-18T12:46:04;4.00;;;1.20;;
22687;SDS011;11511;51.514;7.080;2023-09-18T12:48:30;5.65;;;1.38;;
22687;SDS011;11511;51.514;7.080;2023-09-18T12:51:01;6.45;;;1.40;;
22687;SDS011;11511;51.514;7.080;2023-09-18T12:53:28;3.42;;;1.50;;
22687;SDS011;11511;51.514;7.080;2023-09-18T12:55:54;3.08;;;1.17;;
22687;SDS011;11511;51.514;7.080;2023-09-18T13:00:54;4.03;;;1.23;;
22687;SDS011;11511;51.514;7.080;2023-09-18T13:03:19;3.50;;;1.30;;
22687;SDS011;11511;51.514;7.080;2023-09-18T13:05:45;2.65;;;1.55;;
22687;SDS011;11511;51.514;7.080;2023-09-18T13:08:11;4.82;;;1.38;;
22687;SDS011;11511;51.514;7.080;2023-09-18T13:11:11;2.78;;;1.40;;
22687;SDS011;11511;51.514;7.080;2023-09-18T13:13:29;3.50;;;1.10;;
22687;SDS011;11511;51.514;7.080;2023-09-18T13:15:58;2.20;;;1.23;;
22687;SDS011;11511;51.514;7.080;2023-09-18T13:18:25;2.40;;;1.20;;
22687;SDS011;11511;51.514;7.080;2023-09-18T13:20:51;1.63;;;0.98;;
22687;SDS011;11511;51.514;7.080;2023-09-18T13:23:17;2.33;;;1.30;;
22687;SDS011;11511;51.514;7.080;2023-09-18T13:25:43;4.00;;;1.20;;
22687;SDS011;11511;51.514;7.080;2023-09-18T13:28:10;5.88;;;1.30;;
22687;SDS011;11511;51.514;7.080;2023-09-18T13:30:36;4.30;;;1.35;;
22687;SDS011;11511;51.514;7.080;2023-09-18T13:33:06;2.83;;;1.42;;
22687;SDS011;11511;51.514;7.080;2023-09-18T13:35:36;6.10;;;1.40;;
22687;SDS011;11511;51.514;7.080;2023-09-18T13:38:04;3.40;;;1.30;;
22687;SDS011;11511;51.514;7.080;2023-09-18T13:40:31;5.07;;;1.10;;
22687;SDS011;11511;51.514;7.080;2023-09-18T13:42:58;1.80;;;1.15;;
22687;SDS011;11511;51.514;7.080;2023-09-18T13:45:23;3.92;;;1.00;;
22687;SDS011;11511;51.514;7.080;2023-09-18T13:47:49;4.70;;;1.33;;
22687;SDS011;11511;51.514;7.080;2023-09-18T13:50:15;5.47;;;1.42;;
22687;SDS011;11511;51.514;7.080;2023-09-18T13:52:40;7.07;;;1.23;;
22687;SDS011;11511;51.514;7.080;2023-09-18T13:55:06;6.10;;;1.30;;
22687;SDS011;11511;51.514;7.080;2023-09-18T13:57:32;6.60;;;1.40;;
22687;SDS011;11511;51.514;7.080;2023-09-18T13:59:59;3.90;;;1.38;;
22687;SDS011;11511;51.514;7.080;2023-09-18T14:02:25;5.80;;;1.20;;
22687;SDS011;11511;51.514;7.080;2023-09-18T14:04:52;2.60;;;1.08;;
22687;SDS011;11511;51.514;7.080;2023-09-18T14:07:18;2.28;;;1.10;;
22687;SDS011;11511;51.514;7.080;2023-09-18T14:09:44;3.38;;;1.10;;
22687;SDS011;11511;51.514;7.080;2023-09-18T14:12:11;2.55;;;1.05;;
22687;SDS011;11511;51.514;7.080;2023-09-18T14:14:36;1.95;;;1.17;;
22687;SDS011;11511;51.514;7.080;2023-09-18T14:17:03;2.33;;;1.20;;
22687;SDS011;11511;51.514;7.080;2023-09-18T14:19:31;3.00;;;1.30;;
22687;SDS011;11511;51.514;7.080;2023-09-18T14:21:57;3.47;;;1.40;;
22687;SDS011;11511;51.514;7.080;2023-09-18T14:24:22;4.90;;;1.33;;
22687;SDS011;11511;51.514;7.080;2023-09-18T14:26:53;2.50;;;1.20;;
22687;SDS011;11511;51.514;7.080;2023-09-18T14:29:20;2.92;;;1.30;;
22687;SDS011;11511;51.514;7.080;2023-09-18T14:31:46;5.35;;;1.45;;
22687;SDS011;11511;51.514;7.080;2023-09-18T14:34:11;5.75;;;1.48;;
22687;SDS011;11511;51.514;7.080;2023-09-18T14:36:37;5.22;;;1.58;;
22687;SDS011;11511;51.514;7.080;2023-09-18T14:39:04;4.90;;;1.33;;
22687;SDS011;11511;51.514;7.080;2023-09-18T14:41:29;3.35;;;1.40;;
22687;SDS011;11511;51.514;7.080;2023-09-18T14:43:57;4.43;;;1.30;;
22687;SDS011;11511;51.514;7.080;2023-09-18T14:46:23;2.65;;;1.35;;
22687;SDS011;11511;51.514;7.080;2023-09-18T14:48:49;3.35;;;1.40;;
22687;SDS011;11511;51.514;7.080;2023-09-18T14:51:15;3.00;;;1.42;;
22687;SDS011;11511;51.514;7.080;2023-09-18T14:53:40;3.42;;;1.48;;
22687;SDS011;11511;51.514;7.080;2023-09-18T14:56:05;5.45;;;1.20;;
22687;SDS011;11511;51.514;7.080;2023-09-18T14:58:31;6.85;;;1.30;;
22687;SDS011;11511;51.514;7.080;2023-09-18T15:00:57;2.90;;;1.25;;
22687;SDS011;11511;51.514;7.080;2023-09-18T15:03:22;2.17;;;1.13;;